sensor_id;sensor_type;location;lat;lon;timestamp;temperature;humidity
72883;DHT22;61017;37.812;-122.286;2023-01-19T00:01:07;16.60;67.20
72883;DHT22;61017;37.812;-122.286;2023-01-19T00:02:38;16.50;67.90
72883;DHT22;61017;37.812;-122.286;2023-01-19T00:04:10;16.40;68.70
72883;DHT22;61017;37.812;-122.286;2023-01-19T00:05:42;16.30;69.50
72883;DHT22;61017;37.812;-122.286;2023-01-19T00:07:14;16.30;70.40
72883;DHT22;61017;37.812;-122.286;2023-01-19T00:08:46;16.20;71.10
72883;DHT22;61017;37.812;-122.286;2023-01-19T00:10:17;16.20;71.50
72883;DHT22;61017;37.812;-122.286;2023-01-19T00:11:49;16.20;71.80
72883;DHT22;61017;37.812;-122.286;2023-01-19T00:13:20;16.10;73.00
72883;DHT22;61017;37.812;-122.286;2023-01-19T00:14:52;16.10;72.60
72883;DHT22;61017;37.812;-122.286;2023-01-19T00:16:23;16.10;73.60
72883;DHT22;61017;37.812;-122.286;2023-01-19T00:17:55;16.00;73.50
72883;DHT22;61017;37.812;-122.286;2023-01-19T00:19:28;16.00;74.30
72883;DHT22;61017;37.812;-122.286;2023-01-19T00:21:00;16.00;74.80
72883;DHT22;61017;37.812;-122.286;2023-01-19T00:22:31;16.00;75.30
72883;DHT22;61017;37.812;-122.286;2023-01-19T00:24:03;16.00;75.70
72883;DHT22;61017;37.812;-122.286;2023-01-19T00:25:36;15.90;76.60
72883;DHT22;61017;37.812;-122.286;2023-01-19T00:27:07;15.90;76.30
72883;DHT22;61017;37.812;-122.286;2023-01-19T00:28:39;15.90;76.60
72883;DHT22;61017;37.812;-122.286;2023-01-19T00:30:10;15.90;77.50
72883;DHT22;61017;37.812;-122.286;2023-01-19T00:31:42;15.90;77.70
72883;DHT22;61017;37.812;-122.286;2023-01-19T00:33:14;15.80;78.20
72883;DHT22;61017;37.812;-122.286;2023-01-19T00:34:45;15.80;78.20
72883;DHT22;61017;37.812;-122.286;2023-01-19T00:36:17;15.80;78.50
72883;DHT22;61017;37.812;-122.286;2023-01-19T00:37:49;15.80;78.70
72883;DHT22;61017;37.812;-122.286;2023-01-19T00:39:20;15.80;79.00
72883;DHT22;61017;37.812;-122.286;2023-01-19T00:40:52;15.80;79.30
72883;DHT22;61017;37.812;-122.286;2023-01-19T00:42:23;15.80;79.50
72883;DHT22;61017;37.812;-122.286;2023-01-19T00:43:55;15.80;79.80
72883;DHT22;61017;37.812;-122.286;2023-01-19T00:45:26;15.70;79.90
72883;DHT22;61017;37.812;-122.286;2023-01-19T00:46:58;15.70;80.00
72883;DHT22;61017;37.812;-122.286;2023-01-19T00:48:29;15.70;80.20
72883;DHT22;61017;37.812;-122.286;2023-01-19T00:50:01;15.70;80.30
72883;DHT22;61017;37.812;-122.286;2023-01-19T00:51:33;15.70;80.70
72883;DHT22;61017;37.812;-122.286;2023-01-19T00:53:04;15.70;80.70
72883;DHT22;61017;37.812;-122.286;2023-01-19T00:54:36;15.70;81.00
72883;DHT22;61017;37.812;-122.286;2023-01-19T00:56:07;15.70;81.30
72883;DHT22;61017;37.812;-122.286;2023-01-19T00:57:39;15.70;81.40
72883;DHT22;61017;37.812;-122.286;2023-01-19T00:59:14;15.70;81.60
72883;DHT22;61017;37.812;-122.286;2023-01-19T01:00:47;15.70;81.60
72883;DHT22;61017;37.812;-122.286;2023-01-19T01:02:18;15.60;81.60
72883;DHT22;61017;37.812;-122.286;2023-01-19T01:03:50;15.60;81.70
72883;DHT22;61017;37.812;-122.286;2023-01-19T01:05:21;15.60;81.80
72883;DHT22;61017;37.812;-122.286;2023-01-19T01:06:53;15.60;81.60
72883;DHT22;61017;37.812;-122.286;2023-01-19T01:08:25;15.60;81.90
72883;DHT22;61017;37.812;-122.286;2023-01-19T01:09:57;15.60;82.10
72883;DHT22;61017;37.812;-122.286;2023-01-19T01:11:28;15.60;82.30
72883;DHT22;61017;37.812;-122.286;2023-01-19T01:13:00;15.60;82.50
72883;DHT22;61017;37.812;-122.286;2023-01-19T01:14:32;15.60;82.70
72883;DHT22;61017;37.812;-122.286;2023-01-19T01:16:03;15.60;82.80
72883;DHT22;61017;37.812;-122.286;2023-01-19T01:17:36;15.60;82.70
72883;DHT22;61017;37.812;-122.286;2023-01-19T01:19:07;15.60;82.80
72883;DHT22;61017;37.812;-122.286;2023-01-19T01:20:39;15.60;82.90
72883;DHT22;61017;37.812;-122.286;2023-01-19T01:22:10;15.60;83.10
72883;DHT22;61017;37.812;-122.286;2023-01-19T01:23:42;15.60;83.20
72883;DHT22;61017;37.812;-122.286;2023-01-19T01:25:15;15.60;83.20
72883;DHT22;61017;37.812;-122.286;2023-01-19T01:26:47;15.60;83.20
72883;DHT22;61017;37.812;-122.286;2023-01-19T01:28:18;15.60;83.40
72883;DHT22;61017;37.812;-122.286;2023-01-19T01:29:50;15.60;83.10
72883;DHT22;61017;37.812;-122.286;2023-01-19T01:31:23;15.60;83.50
72883;DHT22;61017;37.812;-122.286;2023-01-19T01:32:55;15.60;83.50
72883;DHT22;61017;37.812;-122.286;2023-01-19T01:34:27;15.60;83.80
72883;DHT22;61017;37.812;-122.286;2023-01-19T01:35:58;15.60;83.80
72883;DHT22;61017;37.812;-122.286;2023-01-19T01:37:30;15.60;83.80
72883;DHT22;61017;37.812;-122.286;2023-01-19T01:39:03;15.50;83.90
72883;DHT22;61017;37.812;-122.286;2023-01-19T01:40:37;15.50;83.80
72883;DHT22;61017;37.812;-122.286;2023-01-19T01:42:17;15.50;83.80
72883;DHT22;61017;37.812;-122.286;2023-01-19T01:43:51;15.50;83.80
72883;DHT22;61017;37.812;-122.286;2023-01-19T01:45:33;15.50;84.10
72883;DHT22;61017;37.812;-122.286;2023-01-19T01:47:04;15.50;84.20
72883;DHT22;61017;37.812;-122.286;2023-01-19T01:48:36;15.50;84.40
72883;DHT22;61017;37.812;-122.286;2023-01-19T01:50:15;15.50;84.40
72883;DHT22;61017;37.812;-122.286;2023-01-19T01:51:51;15.50;84.50
72883;DHT22;61017;37.812;-122.286;2023-01-19T01:53:23;15.50;84.50
72883;DHT22;61017;37.812;-122.286;2023-01-19T01:54:55;15.50;84.40
72883;DHT22;61017;37.812;-122.286;2023-01-19T01:56:40;15.50;84.60
72883;DHT22;61017;37.812;-122.286;2023-01-19T01:58:14;15.50;84.50
72883;DHT22;61017;37.812;-122.286;2023-01-19T01:59:47;15.50;84.50
72883;DHT22;61017;37.812;-122.286;2023-01-19T02:01:20;15.50;84.60
72883;DHT22;61017;37.812;-122.286;2023-01-19T02:02:52;15.50;84.50
72883;DHT22;61017;37.812;-122.286;2023-01-19T02:04:24;15.50;85.00
72883;DHT22;61017;37.812;-122.286;2023-01-19T02:05:58;15.50;85.60
72883;DHT22;61017;37.812;-122.286;2023-01-19T02:09:29;15.50;84.70
72883;DHT22;61017;37.812;-122.286;2023-01-19T02:11:03;15.50;84.70
72883;DHT22;61017;37.812;-122.286;2023-01-19T02:12:35;15.50;84.70
72883;DHT22;61017;37.812;-122.286;2023-01-19T02:14:06;15.50;84.60
72883;DHT22;61017;37.812;-122.286;2023-01-19T02:15:38;15.40;84.70
72883;DHT22;61017;37.812;-122.286;2023-01-19T02:17:09;15.40;84.90
72883;DHT22;61017;37.812;-122.286;2023-01-19T02:18:41;15.50;85.20
72883;DHT22;61017;37.812;-122.286;2023-01-19T02:20:14;15.50;85.10
72883;DHT22;61017;37.812;-122.286;2023-01-19T02:22:00;15.50;85.00
72883;DHT22;61017;37.812;-122.286;2023-01-19T02:23:46;15.40;85.00
72883;DHT22;61017;37.812;-122.286;2023-01-19T02:25:18;15.50;85.10
72883;DHT22;61017;37.812;-122.286;2023-01-19T02:26:51;15.40;85.10
72883;DHT22;61017;37.812;-122.286;2023-01-19T02:28:22;15.40;85.10
72883;DHT22;61017;37.812;-122.286;2023-01-19T02:29:54;15.50;85.10
72883;DHT22;61017;37.812;-122.286;2023-01-19T02:31:28;15.50;85.20
72883;DHT22;61017;37.812;-122.286;2023-01-19T02:33:00;15.50;85.20
72883;DHT22;61017;37.812;-122.286;2023-01-19T02:34:32;15.50;85.20
72883;DHT22;61017;37.812;-122.286;2023-01-19T02:36:04;15.40;85.20
72883;DHT22;61017;37.812;-122.286;2023-01-19T02:37:36;15.40;85.20
72883;DHT22;61017;37.812;-122.286;2023-01-19T02:39:09;15.40;85.20
72883;DHT22;61017;37.812;-122.286;2023-01-19T02:40:42;15.40;85.50
72883;DHT22;61017;37.812;-122.286;2023-01-19T02:42:24;15.40;85.40
72883;DHT22;61017;37.812;-122.286;2023-01-19T02:43:57;15.40;86.20
72883;DHT22;61017;37.812;-122.286;2023-01-19T02:45:30;15.40;85.70
72883;DHT22;61017;37.812;-122.286;2023-01-19T02:47:02;15.40;85.50
72883;DHT22;61017;37.812;-122.286;2023-01-19T02:48:34;15.40;85.70
72883;DHT22;61017;37.812;-122.286;2023-01-19T02:52:12;15.50;85.80
72883;DHT22;61017;37.812;-122.286;2023-01-19T02:55:55;15.80;77.20
72883;DHT22;61017;37.812;-122.286;2023-01-19T03:01:40;16.60;70.10
72883;DHT22;61017;37.812;-122.286;2023-01-19T03:02:46;16.70;68.40
72883;DHT22;61017;37.812;-122.286;2023-01-19T03:04:50;16.90;66.50
72883;DHT22;61017;37.812;-122.286;2023-01-19T03:08:15;17.10;65.00
72883;DHT22;61017;37.812;-122.286;2023-01-19T03:10:03;16.90;67.60
72883;DHT22;61017;37.812;-122.286;2023-01-19T03:11:38;16.90;65.70
72883;DHT22;61017;37.812;-122.286;2023-01-19T03:15:06;17.10;64.10
72883;DHT22;61017;37.812;-122.286;2023-01-19T03:16:46;17.20;62.90
72883;DHT22;61017;37.812;-122.286;2023-01-19T03:18:20;17.20;62.20
72883;DHT22;61017;37.812;-122.286;2023-01-19T03:19:53;17.30;61.50
72883;DHT22;61017;37.812;-122.286;2023-01-19T03:21:26;17.30;61.00
72883;DHT22;61017;37.812;-122.286;2023-01-19T03:23:01;17.40;60.60
72883;DHT22;61017;37.812;-122.286;2023-01-19T03:24:36;17.40;60.10
72883;DHT22;61017;37.812;-122.286;2023-01-19T03:26:11;17.40;60.70
72883;DHT22;61017;37.812;-122.286;2023-01-19T03:27:46;17.20;64.00
72883;DHT22;61017;37.812;-122.286;2023-01-19T03:29:21;17.20;62.70
72883;DHT22;61017;37.812;-122.286;2023-01-19T03:31:02;17.20;61.80
72883;DHT22;61017;37.812;-122.286;2023-01-19T03:32:40;17.30;61.30
72883;DHT22;61017;37.812;-122.286;2023-01-19T03:34:14;17.30;60.60
72883;DHT22;61017;37.812;-122.286;2023-01-19T03:35:49;17.40;60.20
72883;DHT22;61017;37.812;-122.286;2023-01-19T03:37:23;17.40;59.70
72883;DHT22;61017;37.812;-122.286;2023-01-19T03:38:57;17.50;59.60
72883;DHT22;61017;37.812;-122.286;2023-01-19T03:40:31;17.50;59.40
72883;DHT22;61017;37.812;-122.286;2023-01-19T03:42:10;17.50;59.10
72883;DHT22;61017;37.812;-122.286;2023-01-19T03:43:46;17.50;59.70
72883;DHT22;61017;37.812;-122.286;2023-01-19T03:45:19;17.30;62.70
72883;DHT22;61017;37.812;-122.286;2023-01-19T03:46:51;17.30;61.30
72883;DHT22;61017;37.812;-122.286;2023-01-19T03:48:24;17.30;60.60
72883;DHT22;61017;37.812;-122.286;2023-01-19T03:49:57;17.40;60.00
72883;DHT22;61017;37.812;-122.286;2023-01-19T03:51:37;17.50;59.60
72883;DHT22;61017;37.812;-122.286;2023-01-19T03:53:12;17.50;59.20
72883;DHT22;61017;37.812;-122.286;2023-01-19T03:54:44;17.50;59.00
72883;DHT22;61017;37.812;-122.286;2023-01-19T03:56:23;17.60;59.10
72883;DHT22;61017;37.812;-122.286;2023-01-19T03:57:55;17.40;61.40
72883;DHT22;61017;37.812;-122.286;2023-01-19T03:59:27;17.40;61.30
72883;DHT22;61017;37.812;-122.286;2023-01-19T04:00:58;17.40;60.50
72883;DHT22;61017;37.812;-122.286;2023-01-19T04:02:30;17.40;59.90
72883;DHT22;61017;37.812;-122.286;2023-01-19T04:04:01;17.50;59.50
72883;DHT22;61017;37.812;-122.286;2023-01-19T04:05:33;17.60;59.20
72883;DHT22;61017;37.812;-122.286;2023-01-19T04:07:04;17.60;58.80
72883;DHT22;61017;37.812;-122.286;2023-01-19T04:08:36;17.60;59.30
72883;DHT22;61017;37.812;-122.286;2023-01-19T04:10:08;17.40;61.70
72883;DHT22;61017;37.812;-122.286;2023-01-19T04:11:40;17.40;60.50
72883;DHT22;61017;37.812;-122.286;2023-01-19T04:13:11;17.40;59.80
72883;DHT22;61017;37.812;-122.286;2023-01-19T04:14:43;17.50;59.30
72883;DHT22;61017;37.812;-122.286;2023-01-19T04:16:14;17.60;59.10
72883;DHT22;61017;37.812;-122.286;2023-01-19T04:17:46;17.60;58.80
72883;DHT22;61017;37.812;-122.286;2023-01-19T04:19:17;17.70;58.50
72883;DHT22;61017;37.812;-122.286;2023-01-19T04:20:49;17.50;59.30
72883;DHT22;61017;37.812;-122.286;2023-01-19T04:22:20;17.50;61.00
72883;DHT22;61017;37.812;-122.286;2023-01-19T04:23:52;17.50;60.20
72883;DHT22;61017;37.812;-122.286;2023-01-19T04:25:23;17.50;59.70
72883;DHT22;61017;37.812;-122.286;2023-01-19T04:26:55;17.60;59.40
72883;DHT22;61017;37.812;-122.286;2023-01-19T04:28:26;17.60;58.90
72883;DHT22;61017;37.812;-122.286;2023-01-19T04:29:58;17.70;58.50
72883;DHT22;61017;37.812;-122.286;2023-01-19T04:31:29;17.70;58.60
72883;DHT22;61017;37.812;-122.286;2023-01-19T04:33:01;17.50;60.70
72883;DHT22;61017;37.812;-122.286;2023-01-19T04:34:33;17.50;60.40
72883;DHT22;61017;37.812;-122.286;2023-01-19T04:36:04;17.50;59.80
72883;DHT22;61017;37.812;-122.286;2023-01-19T04:37:36;17.60;59.40
72883;DHT22;61017;37.812;-122.286;2023-01-19T04:39:07;17.60;59.00
72883;DHT22;61017;37.812;-122.286;2023-01-19T04:40:39;17.70;58.70
72883;DHT22;61017;37.812;-122.286;2023-01-19T04:42:11;17.70;58.30
72883;DHT22;61017;37.812;-122.286;2023-01-19T04:43:42;17.70;58.80
72883;DHT22;61017;37.812;-122.286;2023-01-19T04:45:14;17.50;61.00
72883;DHT22;61017;37.812;-122.286;2023-01-19T04:46:45;17.50;60.00
72883;DHT22;61017;37.812;-122.286;2023-01-19T04:48:18;17.60;59.50
72883;DHT22;61017;37.812;-122.286;2023-01-19T04:49:49;17.60;59.00
72883;DHT22;61017;37.812;-122.286;2023-01-19T04:51:21;17.70;58.80
72883;DHT22;61017;37.812;-122.286;2023-01-19T04:52:52;17.70;58.40
72883;DHT22;61017;37.812;-122.286;2023-01-19T04:54:24;17.70;58.30
72883;DHT22;61017;37.812;-122.286;2023-01-19T04:55:55;17.60;59.10
72883;DHT22;61017;37.812;-122.286;2023-01-19T04:57:27;17.60;60.70
72883;DHT22;61017;37.812;-122.286;2023-01-19T04:58:59;17.50;59.70
72883;DHT22;61017;37.812;-122.286;2023-01-19T05:00:30;17.60;59.40
72883;DHT22;61017;37.812;-122.286;2023-01-19T05:02:02;17.70;59.00
72883;DHT22;61017;37.812;-122.286;2023-01-19T05:03:33;17.70;58.70
72883;DHT22;61017;37.812;-122.286;2023-01-19T05:05:05;17.70;58.30
72883;DHT22;61017;37.812;-122.286;2023-01-19T05:06:37;17.80;58.50
72883;DHT22;61017;37.812;-122.286;2023-01-19T05:08:08;17.60;61.30
72883;DHT22;61017;37.812;-122.286;2023-01-19T05:09:40;17.60;60.00
72883;DHT22;61017;37.812;-122.286;2023-01-19T05:11:12;17.60;59.60
72883;DHT22;61017;37.812;-122.286;2023-01-19T05:12:43;17.70;59.20
72883;DHT22;61017;37.812;-122.286;2023-01-19T05:14:15;17.70;58.60
72883;DHT22;61017;37.812;-122.286;2023-01-19T05:15:46;17.80;58.40
72883;DHT22;61017;37.812;-122.286;2023-01-19T05:17:18;17.80;58.00
72883;DHT22;61017;37.812;-122.286;2023-01-19T05:18:49;17.70;58.50
72883;DHT22;61017;37.812;-122.286;2023-01-19T05:20:21;17.70;60.70
72883;DHT22;61017;37.812;-122.286;2023-01-19T05:21:52;17.60;59.50
72883;DHT22;61017;37.812;-122.286;2023-01-19T05:23:24;17.70;59.20
72883;DHT22;61017;37.812;-122.286;2023-01-19T05:24:55;17.70;58.90
72883;DHT22;61017;37.812;-122.286;2023-01-19T05:26:27;17.80;58.50
72883;DHT22;61017;37.812;-122.286;2023-01-19T05:27:58;17.80;58.20
72883;DHT22;61017;37.812;-122.286;2023-01-19T05:29:30;17.80;58.30
72883;DHT22;61017;37.812;-122.286;2023-01-19T05:31:01;17.70;59.20
72883;DHT22;61017;37.812;-122.286;2023-01-19T05:32:33;17.60;60.40
72883;DHT22;61017;37.812;-122.286;2023-01-19T05:34:05;17.60;59.70
72883;DHT22;61017;37.812;-122.286;2023-01-19T05:35:36;17.70;59.30
72883;DHT22;61017;37.812;-122.286;2023-01-19T05:37:08;17.70;59.10
72883;DHT22;61017;37.812;-122.286;2023-01-19T05:38:39;17.80;58.80
72883;DHT22;61017;37.812;-122.286;2023-01-19T05:40:11;17.80;58.50
72883;DHT22;61017;37.812;-122.286;2023-01-19T05:41:43;17.80;58.70
72883;DHT22;61017;37.812;-122.286;2023-01-19T05:43:15;17.70;61.50
72883;DHT22;61017;37.812;-122.286;2023-01-19T05:44:46;17.70;60.30
72883;DHT22;61017;37.812;-122.286;2023-01-19T05:46:18;17.70;59.90
72883;DHT22;61017;37.812;-122.286;2023-01-19T05:47:49;17.70;59.40
72883;DHT22;61017;37.812;-122.286;2023-01-19T05:49:21;17.80;59.10
72883;DHT22;61017;37.812;-122.286;2023-01-19T05:50:57;17.80;58.80
72883;DHT22;61017;37.812;-122.286;2023-01-19T05:52:28;17.80;59.30
72883;DHT22;61017;37.812;-122.286;2023-01-19T05:54:00;17.60;61.90
72883;DHT22;61017;37.812;-122.286;2023-01-19T05:55:32;17.30;65.30
72883;DHT22;61017;37.812;-122.286;2023-01-19T05:57:03;17.10;66.40
72883;DHT22;61017;37.812;-122.286;2023-01-19T05:58:36;16.90;68.60
72883;DHT22;61017;37.812;-122.286;2023-01-19T06:00:07;16.70;70.10
72883;DHT22;61017;37.812;-122.286;2023-01-19T06:01:39;16.60;71.10
72883;DHT22;61017;37.812;-122.286;2023-01-19T06:03:11;16.50;72.80
72883;DHT22;61017;37.812;-122.286;2023-01-19T06:04:42;16.40;73.80
72883;DHT22;61017;37.812;-122.286;2023-01-19T06:06:14;16.30;74.40
72883;DHT22;61017;37.812;-122.286;2023-01-19T06:07:45;16.30;74.80
72883;DHT22;61017;37.812;-122.286;2023-01-19T06:09:17;16.20;74.90
72883;DHT22;61017;37.812;-122.286;2023-01-19T06:10:49;16.20;75.70
72883;DHT22;61017;37.812;-122.286;2023-01-19T06:12:20;16.20;76.00
72883;DHT22;61017;37.812;-122.286;2023-01-19T06:13:52;16.10;76.20
72883;DHT22;61017;37.812;-122.286;2023-01-19T06:15:23;16.10;76.70
72883;DHT22;61017;37.812;-122.286;2023-01-19T06:16:55;16.10;76.80
72883;DHT22;61017;37.812;-122.286;2023-01-19T06:18:27;16.10;77.20
72883;DHT22;61017;37.812;-122.286;2023-01-19T06:19:59;16.00;77.20
72883;DHT22;61017;37.812;-122.286;2023-01-19T06:21:30;16.00;77.60
72883;DHT22;61017;37.812;-122.286;2023-01-19T06:23:02;16.00;77.90
72883;DHT22;61017;37.812;-122.286;2023-01-19T06:24:33;15.90;78.20
72883;DHT22;61017;37.812;-122.286;2023-01-19T06:26:05;15.90;78.40
72883;DHT22;61017;37.812;-122.286;2023-01-19T06:27:36;15.90;78.80
72883;DHT22;61017;37.812;-122.286;2023-01-19T06:29:09;15.90;78.90
72883;DHT22;61017;37.812;-122.286;2023-01-19T06:30:40;15.90;79.20
72883;DHT22;61017;37.812;-122.286;2023-01-19T06:32:12;15.90;79.30
72883;DHT22;61017;37.812;-122.286;2023-01-19T06:33:44;15.90;79.60
72883;DHT22;61017;37.812;-122.286;2023-01-19T06:35:15;15.90;79.80
72883;DHT22;61017;37.812;-122.286;2023-01-19T06:36:47;15.90;79.80
72883;DHT22;61017;37.812;-122.286;2023-01-19T06:38:18;15.90;80.10
72883;DHT22;61017;37.812;-122.286;2023-01-19T06:39:50;15.80;80.00
72883;DHT22;61017;37.812;-122.286;2023-01-19T06:41:21;15.80;80.10
72883;DHT22;61017;37.812;-122.286;2023-01-19T06:42:53;15.80;80.40
72883;DHT22;61017;37.812;-122.286;2023-01-19T06:44:24;15.80;80.60
72883;DHT22;61017;37.812;-122.286;2023-01-19T06:45:57;15.80;80.80
72883;DHT22;61017;37.812;-122.286;2023-01-19T06:47:28;15.80;81.00
72883;DHT22;61017;37.812;-122.286;2023-01-19T06:49:00;15.80;81.10
72883;DHT22;61017;37.812;-122.286;2023-01-19T06:50:32;15.80;81.40
72883;DHT22;61017;37.812;-122.286;2023-01-19T06:52:03;15.80;81.30
72883;DHT22;61017;37.812;-122.286;2023-01-19T06:53:35;15.80;81.40
72883;DHT22;61017;37.812;-122.286;2023-01-19T06:55:09;15.80;81.60
72883;DHT22;61017;37.812;-122.286;2023-01-19T06:56:41;15.80;81.70
72883;DHT22;61017;37.812;-122.286;2023-01-19T06:58:13;15.70;81.90
72883;DHT22;61017;37.812;-122.286;2023-01-19T06:59:45;15.80;82.00
72883;DHT22;61017;37.812;-122.286;2023-01-19T07:01:16;15.80;82.10
72883;DHT22;61017;37.812;-122.286;2023-01-19T07:02:48;15.70;82.10
72883;DHT22;61017;37.812;-122.286;2023-01-19T07:04:19;15.70;82.20
72883;DHT22;61017;37.812;-122.286;2023-01-19T07:05:52;15.70;82.30
72883;DHT22;61017;37.812;-122.286;2023-01-19T07:07:24;15.70;83.30
72883;DHT22;61017;37.812;-122.286;2023-01-19T07:08:55;15.70;82.70
72883;DHT22;61017;37.812;-122.286;2023-01-19T07:10:27;15.70;82.80
72883;DHT22;61017;37.812;-122.286;2023-01-19T07:11:58;15.70;82.90
72883;DHT22;61017;37.812;-122.286;2023-01-19T07:13:30;15.70;83.00
72883;DHT22;61017;37.812;-122.286;2023-01-19T07:15:01;15.70;82.90
72883;DHT22;61017;37.812;-122.286;2023-01-19T07:16:33;15.70;83.10
72883;DHT22;61017;37.812;-122.286;2023-01-19T07:18:05;15.70;83.40
72883;DHT22;61017;37.812;-122.286;2023-01-19T07:19:36;15.70;83.50
72883;DHT22;61017;37.812;-122.286;2023-01-19T07:21:08;15.60;83.00
72883;DHT22;61017;37.812;-122.286;2023-01-19T07:22:40;15.60;83.00
72883;DHT22;61017;37.812;-122.286;2023-01-19T07:24:12;15.60;83.60
72883;DHT22;61017;37.812;-122.286;2023-01-19T07:25:44;15.60;83.70
72883;DHT22;61017;37.812;-122.286;2023-01-19T07:27:16;15.60;84.00
72883;DHT22;61017;37.812;-122.286;2023-01-19T07:28:47;15.60;84.00
72883;DHT22;61017;37.812;-122.286;2023-01-19T07:30:19;15.60;84.10
72883;DHT22;61017;37.812;-122.286;2023-01-19T07:31:51;15.60;83.90
72883;DHT22;61017;37.812;-122.286;2023-01-19T07:33:23;15.60;84.70
72883;DHT22;61017;37.812;-122.286;2023-01-19T07:34:54;15.60;83.80
72883;DHT22;61017;37.812;-122.286;2023-01-19T07:36:26;15.60;84.20
72883;DHT22;61017;37.812;-122.286;2023-01-19T07:37:58;15.60;84.20
72883;DHT22;61017;37.812;-122.286;2023-01-19T07:39:29;15.60;84.30
72883;DHT22;61017;37.812;-122.286;2023-01-19T07:41:05;15.60;84.40
72883;DHT22;61017;37.812;-122.286;2023-01-19T07:42:37;15.60;84.70
72883;DHT22;61017;37.812;-122.286;2023-01-19T07:44:09;15.60;83.90
72883;DHT22;61017;37.812;-122.286;2023-01-19T07:45:40;15.50;83.50
72883;DHT22;61017;37.812;-122.286;2023-01-19T07:47:12;15.50;83.40
72883;DHT22;61017;37.812;-122.286;2023-01-19T07:48:43;15.50;83.80
72883;DHT22;61017;37.812;-122.286;2023-01-19T07:50:16;15.50;83.50
72883;DHT22;61017;37.812;-122.286;2023-01-19T07:51:48;15.50;83.40
72883;DHT22;61017;37.812;-122.286;2023-01-19T07:53:19;15.50;83.50
72883;DHT22;61017;37.812;-122.286;2023-01-19T07:54:51;15.50;83.50
72883;DHT22;61017;37.812;-122.286;2023-01-19T07:56:22;15.50;83.20
72883;DHT22;61017;37.812;-122.286;2023-01-19T07:57:54;15.50;83.10
72883;DHT22;61017;37.812;-122.286;2023-01-19T07:59:26;15.50;82.70
72883;DHT22;61017;37.812;-122.286;2023-01-19T08:00:58;15.50;82.50
72883;DHT22;61017;37.812;-122.286;2023-01-19T08:02:30;15.50;82.80
72883;DHT22;61017;37.812;-122.286;2023-01-19T08:04:01;15.50;82.80
72883;DHT22;61017;37.812;-122.286;2023-01-19T08:05:33;15.50;82.50
72883;DHT22;61017;37.812;-122.286;2023-01-19T08:07:04;15.50;82.60
72883;DHT22;61017;37.812;-122.286;2023-01-19T08:08:36;15.40;81.60
72883;DHT22;61017;37.812;-122.286;2023-01-19T08:10:08;15.40;81.60
72883;DHT22;61017;37.812;-122.286;2023-01-19T08:11:39;15.40;81.50
72883;DHT22;61017;37.812;-122.286;2023-01-19T08:13:11;15.40;81.60
72883;DHT22;61017;37.812;-122.286;2023-01-19T08:14:42;15.40;81.20
72883;DHT22;61017;37.812;-122.286;2023-01-19T08:16:14;15.40;81.60
72883;DHT22;61017;37.812;-122.286;2023-01-19T08:17:46;15.40;81.80
72883;DHT22;61017;37.812;-122.286;2023-01-19T08:19:24;15.40;82.00
72883;DHT22;61017;37.812;-122.286;2023-01-19T08:20:58;15.40;82.30
72883;DHT22;61017;37.812;-122.286;2023-01-19T08:22:30;15.40;81.90
72883;DHT22;61017;37.812;-122.286;2023-01-19T08:24:02;15.40;82.00
72883;DHT22;61017;37.812;-122.286;2023-01-19T08:25:36;15.40;81.70
72883;DHT22;61017;37.812;-122.286;2023-01-19T08:27:07;15.40;82.10
72883;DHT22;61017;37.812;-122.286;2023-01-19T08:28:39;15.40;82.00
72883;DHT22;61017;37.812;-122.286;2023-01-19T08:30:11;15.40;82.00
72883;DHT22;61017;37.812;-122.286;2023-01-19T08:31:42;15.40;82.00
72883;DHT22;61017;37.812;-122.286;2023-01-19T08:33:14;15.40;82.20
72883;DHT22;61017;37.812;-122.286;2023-01-19T08:34:45;15.40;81.90
72883;DHT22;61017;37.812;-122.286;2023-01-19T08:36:17;15.40;81.90
72883;DHT22;61017;37.812;-122.286;2023-01-19T08:37:49;15.40;81.70
72883;DHT22;61017;37.812;-122.286;2023-01-19T08:39:20;15.40;81.70
72883;DHT22;61017;37.812;-122.286;2023-01-19T08:40:52;15.40;81.80
72883;DHT22;61017;37.812;-122.286;2023-01-19T08:42:23;15.30;81.60
72883;DHT22;61017;37.812;-122.286;2023-01-19T08:43:55;15.30;81.40
72883;DHT22;61017;37.812;-122.286;2023-01-19T08:45:26;15.30;82.60
72883;DHT22;61017;37.812;-122.286;2023-01-19T08:46:58;15.30;81.60
72883;DHT22;61017;37.812;-122.286;2023-01-19T08:48:30;15.30;81.90
72883;DHT22;61017;37.812;-122.286;2023-01-19T08:50:01;15.30;81.60
72883;DHT22;61017;37.812;-122.286;2023-01-19T08:51:33;15.30;82.00
72883;DHT22;61017;37.812;-122.286;2023-01-19T08:53:05;15.40;81.30
72883;DHT22;61017;37.812;-122.286;2023-01-19T08:54:37;15.60;78.40
72883;DHT22;61017;37.812;-122.286;2023-01-19T08:56:10;15.70;75.50
72883;DHT22;61017;37.812;-122.286;2023-01-19T08:57:41;16.00;73.40
72883;DHT22;61017;37.812;-122.286;2023-01-19T08:59:13;16.20;71.00
72883;DHT22;61017;37.812;-122.286;2023-01-19T09:00:44;16.40;68.90
72883;DHT22;61017;37.812;-122.286;2023-01-19T09:02:16;16.60;68.60
72883;DHT22;61017;37.812;-122.286;2023-01-19T09:03:48;16.50;70.50
72883;DHT22;61017;37.812;-122.286;2023-01-19T09:05:19;16.50;67.90
72883;DHT22;61017;37.812;-122.286;2023-01-19T09:06:51;16.70;66.60
72883;DHT22;61017;37.812;-122.286;2023-01-19T09:08:23;16.70;65.10
72883;DHT22;61017;37.812;-122.286;2023-01-19T09:09:54;16.90;64.10
72883;DHT22;61017;37.812;-122.286;2023-01-19T09:11:26;17.00;63.00
72883;DHT22;61017;37.812;-122.286;2023-01-19T09:12:57;17.00;62.20
72883;DHT22;61017;37.812;-122.286;2023-01-19T09:14:29;17.10;61.90
72883;DHT22;61017;37.812;-122.286;2023-01-19T09:16:02;16.90;63.30
72883;DHT22;61017;37.812;-122.286;2023-01-19T09:17:33;16.90;63.50
72883;DHT22;61017;37.812;-122.286;2023-01-19T09:19:04;16.90;62.70
72883;DHT22;61017;37.812;-122.286;2023-01-19T09:20:36;17.00;61.70
72883;DHT22;61017;37.812;-122.286;2023-01-19T09:22:07;17.10;60.80
72883;DHT22;61017;37.812;-122.286;2023-01-19T09:23:39;17.10;60.20
72883;DHT22;61017;37.812;-122.286;2023-01-19T09:25:11;17.20;59.70
72883;DHT22;61017;37.812;-122.286;2023-01-19T09:26:42;17.20;59.90
72883;DHT22;61017;37.812;-122.286;2023-01-19T09:28:15;17.00;62.30
72883;DHT22;61017;37.812;-122.286;2023-01-19T09:29:47;17.00;61.70
72883;DHT22;61017;37.812;-122.286;2023-01-19T09:31:18;17.00;61.00